Time;durP1;ratioP1;P1;durP2;ratioP2;P2;SDS_P1;SDS_P2;PMS_P1;PMS_P2;Temp;Humidity;BMP_temperature;BMP_pressure;BME280_temperature;BME280_humidity;BME280_pressure;Samples;Min_cycle;Max_cycle;Signal;HPM_P1;HPM_P2
2021/11/01 00:30:14;;;;;;;113.73;45.17;;;;;;;;;;6125622;23;20212;-90
2021/11/01 00:33:19;;;;;;;118.30;43.97;;;;;;;;;;6183249;23;20168;-89
2021/11/01 00:36:27;;;;;;;100.20;39.50;;;;;;;;;;6183566;23;20276;-88
2021/11/01 00:39:32;;;;;;;109.50;41.67;;;;;;;;;;6182780;23;20235;-89
2021/11/01 00:42:38;;;;;;;108.53;42.37;;;;;;;;;;6182878;23;20184;-90
2021/11/01 00:45:45;;;;;;;103.67;40.80;;;;;;;;;;6182417;23;20159;-89
2021/11/01 00:48:50;;;;;;;106.73;41.10;;;;;;;;;;6181358;23;20171;-89
2021/11/01 00:51:57;;;;;;;106.03;41.10;;;;;;;;;;6181616;23;20159;-90
2021/11/01 00:55:03;;;;;;;103.33;40.30;;;;;;;;;;6182442;23;20216;-89
2021/11/01 00:58:08;;;;;;;94.97;38.30;;;;;;;;;;6181657;23;20151;-92
2021/11/01 01:01:17;;;;;;;98.77;39.23;;;;;;;;;;6182506;23;20267;-92
2021/11/01 01:04:24;;;;;;;103.70;39.70;;;;;;;;;;6179911;23;20180;-92
2021/11/01 01:07:29;;;;;;;109.93;42.00;;;;;;;;;;6180747;23;20204;-91
2021/11/01 01:10:34;;;;;;;102.10;40.37;;;;;;;;;;6180999;23;20164;-91
2021/11/01 01:13:39;;;;;;;103.20;40.37;;;;;;;;;;6181945;23;20172;-91
2021/11/01 01:16:46;;;;;;;100.00;38.87;;;;;;;;;;6182406;23;20194;-89
2021/11/01 01:19:57;;;;;;;103.23;40.77;;;;;;;;;;6182630;23;20199;-89
2021/11/01 01:23:03;;;;;;;104.07;40.33;;;;;;;;;;6181200;23;20178;-89
2021/11/01 01:26:08;;;;;;;113.90;41.60;;;;;;;;;;6180656;23;20172;-90
2021/11/01 01:29:12;;;;;;;107.10;41.40;;;;;;;;;;6181835;23;20152;-91
2021/11/01 01:32:19;;;;;;;107.87;40.83;;;;;;;;;;6181711;23;20243;-89
2021/11/01 01:35:24;;;;;;;116.23;44.50;;;;;;;;;;6181675;23;20172;-91
2021/11/01 01:38:29;;;;;;;107.83;41.30;;;;;;;;;;6181465;23;20168;-91
2021/11/01 01:41:35;;;;;;;103.73;40.30;;;;;;;;;;6179847;23;20227;-90
2021/11/01 01:44:40;;;;;;;111.67;41.10;;;;;;;;;;6181951;23;20163;-91
2021/11/01 01:47:47;;;;;;;109.60;42.53;;;;;;;;;;6181253;23;20190;-91
2021/11/01 01:50:52;;;;;;;99.93;39.90;;;;;;;;;;6182047;23;20175;-90
2021/11/01 01:53:58;;;;;;;101.27;39.80;;;;;;;;;;6182689;23;20167;-92
2021/11/01 01:57:03;;;;;;;102.47;41.07;;;;;;;;;;6180753;23;20164;-90
2021/11/01 02:00:15;;;;;;;108.50;40.43;;;;;;;;;;6180471;23;20175;-90
2021/11/01 02:03:22;;;;;;;107.90;41.10;;;;;;;;;;6180080;23;20156;-90
2021/11/01 02:06:33;;;;;;;106.67;39.47;;;;;;;;;;6180866;23;20183;-91
2021/11/01 02:09:41;;;;;;;105.60;40.00;;;;;;;;;;6180653;23;20180;-90
2021/11/01 02:12:49;;;;;;;97.80;37.23;;;;;;;;;;6180980;23;20691;-89
2021/11/01 02:16:13;;;;;;;104.70;39.63;;;;;;;;;;6181264;23;20679;-91
2021/11/01 02:19:21;;;;;;;104.07;39.70;;;;;;;;;;6181290;23;20172;-91
2021/11/01 02:22:34;;;;;;;92.90;38.33;;;;;;;;;;6181141;23;20171;-90
2021/11/01 02:25:42;;;;;;;98.77;38.77;;;;;;;;;;6180182;23;20246;-90
2021/11/01 02:28:47;;;;;;;92.63;38.17;;;;;;;;;;6179227;23;20250;-89
2021/11/01 02:31:53;;;;;;;95.43;37.90;;;;;;;;;;6179206;23;20262;-90
2021/11/01 02:34:58;;;;;;;100.27;37.40;;;;;;;;;;6179006;23;20224;-89
2021/11/01 02:38:05;;;;;;;109.07;42.47;;;;;;;;;;6180146;23;20236;-90
2021/11/01 02:41:20;;;;;;;89.57;37.07;;;;;;;;;;6179483;23;20183;-89
2021/11/01 02:44:28;;;;;;;97.00;38.77;;;;;;;;;;6178524;23;20456;-91
2021/11/01 02:47:33;;;;;;;88.17;36.47;;;;;;;;;;6179057;23;20266;-92
2021/11/01 02:50:39;;;;;;;93.73;38.17;;;;;;;;;;6182238;23;20188;-91
2021/11/01 02:53:44;;;;;;;96.90;37.70;;;;;;;;;;6180572;23;20160;-89
2021/11/01 02:56:51;;;;;;;89.50;37.07;;;;;;;;;;6181143;23;20251;-91
2021/11/01 02:59:56;;;;;;;90.33;35.73;;;;;;;;;;6181292;23;20311;-91
2021/11/01 03:03:05;;;;;;;84.03;34.00;;;;;;;;;;6181213;23;20175;-90
2021/11/01 03:06:10;;;;;;;89.50;36.23;;;;;;;;;;6181860;23;20176;-90
2021/11/01 03:09:15;;;;;;;93.67;36.53;;;;;;;;;;6180102;23;20172;-90
2021/11/01 03:12:24;;;;;;;85.57;35.57;;;;;;;;;;6181295;23;20179;-90
2021/11/01 03:15:33;;;;;;;91.53;36.10;;;;;;;;;;6179809;23;20176;-91
2021/11/01 03:18:44;;;;;;;97.20;36.43;;;;;;;;;;6183071;23;20242;-91
2021/11/01 03:21:51;;;;;;;92.57;37.73;;;;;;;;;;6163798;23;20175;-93
2021/11/01 03:25:05;;;;;;;90.20;36.90;;;;;;;;;;6181155;23;20178;-91
2021/11/01 03:28:14;;;;;;;97.10;37.03;;;;;;;;;;6181876;23;20195;-92
2021/11/01 03:31:21;;;;;;;96.13;36.57;;;;;;;;;;6180512;23;20196;-91
2021/11/01 03:34:28;;;;;;;84.63;35.47;;;;;;;;;;6181461;23;20171;-89
2021/11/01 03:37:34;;;;;;;81.20;33.90;;;;;;;;;;6180202;23;20564;-90
2021/11/01 03:40:42;;;;;;;86.33;35.40;;;;;;;;;;6179213;23;20184;-90
2021/11/01 03:43:54;;;;;;;88.97;35.53;;;;;;;;;;6182609;23;20171;-89
2021/11/01 03:47:02;;;;;;;85.33;35.20;;;;;;;;;;6180767;23;20255;-91
2021/11/01 03:50:16;;;;;;;78.93;33.97;;;;;;;;;;6182194;23;20228;-90
2021/11/01 03:53:23;;;;;;;86.93;35.63;;;;;;;;;;6181754;23;20617;-91
2021/11/01 03:56:29;;;;;;;95.00;38.07;;;;;;;;;;6178124;23;20688;-88
2021/11/01 03:59:36;;;;;;;93.47;36.73;;;;;;;;;;6178328;23;20171;-90
2021/11/01 04:02:41;;;;;;;91.70;35.60;;;;;;;;;;6178006;23;20190;-89
2021/11/01 04:05:48;;;;;;;89.17;35.83;;;;;;;;;;6177925;23;20171;-89
2021/11/01 04:08:54;;;;;;;91.60;34.50;;;;;;;;;;6178530;23;20191;-90
2021/11/01 04:12:00;;;;;;;81.60;34.07;;;;;;;;;;6179558;23;20168;-89
2021/11/01 04:15:09;;;;;;;91.57;36.33;;;;;;;;;;6178548;23;20171;-91
2021/11/01 04:18:24;;;;;;;93.73;34.47;;;;;;;;;;6179236;23;20163;-91
2021/11/01 04:21:29;;;;;;;81.90;34.30;;;;;;;;;;6178982;23;20224;-92
2021/11/01 04:24:34;;;;;;;80.23;31.20;;;;;;;;;;6178391;23;20176;-91
2021/11/01 04:27:40;;;;;;;77.17;31.47;;;;;;;;;;6177851;23;20195;-89
2021/11/01 04:30:53;;;;;;;78.93;31.23;;;;;;;;;;6178955;23;20187;-90
2021/11/01 04:34:02;;;;;;;84.43;32.93;;;;;;;;;;6177597;23;20558;-91
2021/11/01 04:37:06;;;;;;;82.33;34.30;;;;;;;;;;6178641;23;20163;-89
2021/11/01 04:40:24;;;;;;;88.43;34.67;;;;;;;;;;6179147;23;20236;-92
2021/11/01 04:53:46;;;;;;;92.97;35.30;;;;;;;;;;6117590;23;20716;-90
2021/11/01 04:56:51;;;;;;;89.00;34.60;;;;;;;;;;6179519;23;20167;-89
2021/11/01 04:59:56;;;;;;;117.97;35.60;;;;;;;;;;6178677;23;20188;-91
2021/11/01 05:03:09;;;;;;;97.90;33.50;;;;;;;;;;6178305;23;20168;-90
2021/11/01 05:06:21;;;;;;;94.47;34.87;;;;;;;;;;6178404;23;20175;-91
2021/11/01 05:09:28;;;;;;;136.47;34.80;;;;;;;;;;6177612;23;20403;-88
2021/11/01 05:12:36;;;;;;;92.53;33.17;;;;;;;;;;6177121;23;20647;-91
2021/11/01 05:15:46;;;;;;;98.60;33.80;;;;;;;;;;6175954;23;20171;-89
2021/11/01 05:19:02;;;;;;;98.83;35.27;;;;;;;;;;6177418;23;20168;-92
2021/11/01 05:22:13;;;;;;;90.37;33.43;;;;;;;;;;6177857;23;20167;-91
2021/11/01 05:25:22;;;;;;;87.13;31.37;;;;;;;;;;6177938;23;20176;-90
2021/11/01 05:28:39;;;;;;;83.97;32.43;;;;;;;;;;6177254;23;20637;-91
2021/11/01 05:31:48;;;;;;;99.37;34.43;;;;;;;;;;6176402;23;20196;-88
2021/11/01 05:34:55;;;;;;;95.90;32.37;;;;;;;;;;6177244;23;20708;-89
2021/11/01 05:38:00;;;;;;;86.90;32.03;;;;;;;;;;6176544;23;20178;-90
2021/11/01 05:41:06;;;;;;;106.00;33.43;;;;;;;;;;6177989;23;20272;-90
2021/11/01 05:44:12;;;;;;;99.67;33.83;;;;;;;;;;6178030;23;20166;-90
2021/11/01 05:47:17;;;;;;;90.83;33.87;;;;;;;;;;6179870;23;20216;-89
2021/11/01 05:50:25;;;;;;;101.17;33.10;;;;;;;;;;6178385;23;20171;-90
2021/11/01 05:54:01;;;;;;;99.53;34.60;;;;;;;;;;6194836;23;20251;-90
2021/11/01 05:57:13;;;;;;;107.93;34.07;;;;;;;;;;6178696;23;20176;-91
2021/11/01 06:00:37;;;;;;;102.33;34.60;;;;;;;;;;6180382;23;20171;-91
2021/11/01 06:03:44;;;;;;;121.53;34.20;;;;;;;;;;6179621;23;20295;-91
2021/11/01 06:07:01;;;;;;;110.40;34.90;;;;;;;;;;6180909;23;20179;-90
2021/11/01 06:10:11;;;;;;;100.60;33.20;;;;;;;;;;6179649;23;20175;-90
2021/11/01 06:13:27;;;;;;;91.73;33.90;;;;;;;;;;6181168;23;20160;-89
2021/11/01 06:16:35;;;;;;;119.90;36.00;;;;;;;;;;6182127;23;20168;-91
2021/11/01 06:19:42;;;;;;;107.87;33.03;;;;;;;;;;6179263;23;20179;-91
2021/11/01 06:22:49;;;;;;;92.70;34.33;;;;;;;;;;6179218;23;20236;-91
2021/11/01 06:25:54;;;;;;;100.57;33.03;;;;;;;;;;6181267;23;20175;-91
2021/11/01 06:29:05;;;;;;;88.77;31.57;;;;;;;;;;6182123;23;20231;-92
2021/11/01 06:32:15;;;;;;;101.93;33.20;;;;;;;;;;6181068;23;20199;-90
2021/11/01 06:39:19;;;;;;;82.00;31.47;;;;;;;;;;6179733;23;20180;-89
2021/11/01 06:42:37;;;;;;;92.10;31.10;;;;;;;;;;6181006;23;20179;-90
2021/11/01 06:45:57;;;;;;;110.00;31.87;;;;;;;;;;6181125;23;20176;-90
2021/11/01 07:16:24;;;;;;;127.33;32.83;;;;;;;;;;6179187;23;20191;-89
2021/11/01 07:19:45;;;;;;;87.00;32.27;;;;;;;;;;6180955;23;20182;-90
2021/11/01 08:21:02;;;;;;;57.90;25.77;;;;;;;;;;6181467;23;20203;-90
2021/11/01 08:24:31;;;;;;;52.33;24.90;;;;;;;;;;6182354;23;20632;-91
2021/11/01 08:38:16;;;;;;;48.27;22.83;;;;;;;;;;6158692;23;20176;-90
2021/11/01 08:44:58;;;;;;;46.93;22.80;;;;;;;;;;6184387;23;20163;-88
2021/11/01 08:51:45;;;;;;;45.97;22.73;;;;;;;;;;6183277;23;20176;-90
2021/11/01 09:02:18;;;;;;;48.92;23.30;;;;;;;;;;6182822;23;20168;-90
2021/11/01 09:23:38;;;;;;;47.67;23.30;;;;;;;;;;6181651;23;20154;-89
2021/11/01 09:26:45;;;;;;;48.95;23.52;;;;;;;;;;6185677;23;20211;-89
2021/11/01 09:30:02;;;;;;;50.35;24.67;;;;;;;;;;6183218;23;20195;-88
2021/11/01 09:43:08;;;;;;;60.50;27.67;;;;;;;;;;6159842;23;20259;-89
2021/11/01 09:46:16;;;;;;;54.63;25.50;;;;;;;;;;6184584;23;20167;-91
2021/11/01 09:49:22;;;;;;;53.40;23.90;;;;;;;;;;6184702;23;20192;-90
2021/11/01 09:52:27;;;;;;;48.67;22.92;;;;;;;;;;6185678;23;20180;-90
2021/11/01 09:55:48;;;;;;;52.38;23.20;;;;;;;;;;6184995;23;20175;-89
2021/11/01 09:59:12;;;;;;;48.08;23.27;;;;;;;;;;6186801;23;20221;-90
2021/11/01 10:02:21;;;;;;;44.90;23.10;;;;;;;;;;6183791;23;20171;-89
2021/11/01 10:05:35;;;;;;;51.78;24.17;;;;;;;;;;6183755;23;20160;-92
2021/11/01 10:08:42;;;;;;;51.78;24.52;;;;;;;;;;6185806;23;20267;-90
2021/11/01 10:11:49;;;;;;;52.83;24.75;;;;;;;;;;6184359;23;20175;-92
2021/11/01 10:14:55;;;;;;;56.33;26.00;;;;;;;;;;6183257;23;20176;-90
2021/11/01 10:18:27;;;;;;;50.92;25.10;;;;;;;;;;6183427;23;20639;-93
2021/11/01 10:21:36;;;;;;;50.42;24.95;;;;;;;;;;6187558;23;20188;-90
2021/11/01 10:24:44;;;;;;;55.47;26.52;;;;;;;;;;6183330;23;20267;-92
2021/11/01 10:28:02;;;;;;;58.40;24.65;;;;;;;;;;6182978;23;20219;-92
2021/11/01 10:31:08;;;;;;;56.50;26.10;;;;;;;;;;6182685;23;20239;-91
2021/11/01 10:34:14;;;;;;;50.97;25.27;;;;;;;;;;6183676;23;20228;-89
2021/11/01 10:37:21;;;;;;;54.75;25.85;;;;;;;;;;6184321;23;20175;-91
2021/11/01 10:40:29;;;;;;;52.00;25.35;;;;;;;;;;6182353;23;20176;-91
2021/11/01 11:11:49;;;;;;;53.78;26.60;;;;;;;;;;6184180;23;20220;-93
2021/11/01 11:14:58;;;;;;;59.15;27.70;;;;;;;;;;6185573;23;20171;-90
2021/11/01 11:21:48;;;;;;;60.25;29.30;;;;;;;;;;6186291;23;20173;-91
2021/11/01 11:25:00;;;;;;;60.63;30.25;;;;;;;;;;6184815;23;20170;-88
2021/11/01 11:31:44;;;;;;;60.58;29.80;;;;;;;;;;6184957;23;20245;-92
2021/11/01 11:48:36;;;;;;;64.07;30.45;;;;;;;;;;6184632;23;20171;-90
2021/11/01 11:51:54;;;;;;;67.55;30.23;;;;;;;;;;6185585;23;20171;-91
2021/11/01 11:55:05;;;;;;;76.15;30.80;;;;;;;;;;6184352;23;20228;-89
2021/11/01 11:58:13;;;;;;;70.20;30.77;;;;;;;;;;6185405;23;20172;-92
2021/11/01 12:01:28;;;;;;;72.78;31.60;;;;;;;;;;6185225;23;20175;-89
2021/11/01 12:04:35;;;;;;;60.53;28.75;;;;;;;;;;6183994;23;20244;-89
2021/11/01 12:07:49;;;;;;;61.78;28.90;;;;;;;;;;6185326;23;20176;-90
2021/11/01 12:11:16;;;;;;;64.13;30.08;;;;;;;;;;6186764;23;20616;-90
2021/11/01 12:14:38;;;;;;;64.05;30.63;;;;;;;;;;6185669;23;20176;-90
2021/11/01 12:17:49;;;;;;;77.05;35.65;;;;;;;;;;6187637;23;20175;-89
2021/11/01 12:20:58;;;;;;;78.88;35.42;;;;;;;;;;6185065;23;20225;-91
2021/11/01 12:24:07;;;;;;;86.68;36.33;;;;;;;;;;6204578;23;20172;-89
2021/11/01 12:27:13;;;;;;;68.35;29.90;;;;;;;;;;6186565;23;20168;-89
2021/11/01 12:30:21;;;;;;;61.42;29.50;;;;;;;;;;6186250;23;20243;-89
2021/11/01 12:33:30;;;;;;;67.13;30.55;;;;;;;;;;6185371;23;20176;-90
2021/11/01 12:36:45;;;;;;;62.58;30.00;;;;;;;;;;6204009;23;20544;-91
2021/11/01 12:40:00;;;;;;;63.67;30.20;;;;;;;;;;6187648;23;20225;-89
2021/11/01 12:43:25;;;;;;;59.38;27.35;;;;;;;;;;6182786;23;20239;-91
2021/11/01 13:00:18;;;;;;;67.40;33.03;;;;;;;;;;6182617;23;20220;-91
2021/11/01 13:03:23;;;;;;;75.43;33.35;;;;;;;;;;6181775;23;20223;-90
2021/11/01 13:10:21;;;;;;;90.93;38.25;;;;;;;;;;6183152;23;20265;-92
2021/11/01 13:20:25;;;;;;;93.65;41.90;;;;;;;;;;6182513;23;20160;-90
2021/11/01 13:23:34;;;;;;;79.50;37.83;;;;;;;;;;6184544;23;20186;-91
2021/11/01 13:37:08;;;;;;;89.97;37.20;;;;;;;;;;6184786;23;20168;-88
2021/11/01 13:40:17;;;;;;;81.30;37.72;;;;;;;;;;6185638;23;20172;-89
2021/11/01 13:43:29;;;;;;;96.95;37.00;;;;;;;;;;6183189;23;20171;-90
2021/11/01 13:46:34;;;;;;;84.22;36.97;;;;;;;;;;6185995;23;20243;-92
2021/11/01 13:49:43;;;;;;;85.97;35.72;;;;;;;;;;6183879;23;20195;-90
2021/11/01 13:52:59;;;;;;;80.18;37.05;;;;;;;;;;6182566;23;20175;-89
2021/11/01 13:56:22;;;;;;;88.13;39.08;;;;;;;;;;6183341;23;20184;-92
2021/11/01 13:59:44;;;;;;;87.75;39.80;;;;;;;;;;6184610;23;20172;-89
2021/11/01 14:26:48;;;;;;;92.82;39.90;;;;;;;;;;6182757;23;20140;-89
2021/11/01 14:31:34;;;;;;;90.65;39.70;;;;;;;;;;6181377;23;20235;-90
2021/11/01 15:23:26;;;;;;;98.55;38.30;;;;;;;;;;6182725;23;20160;-88
2021/11/01 16:17:57;;;;;;;76.93;29.63;;;;;;;;;;6184094;23;20180;-91
2021/11/01 16:21:05;;;;;;;69.05;28.67;;;;;;;;;;6165640;23;20183;-92
2021/11/01 16:24:11;;;;;;;75.32;30.50;;;;;;;;;;6182687;23;20163;-89
2021/11/01 16:27:19;;;;;;;70.13;28.92;;;;;;;;;;6181857;23;20238;-90
2021/11/01 16:30:31;;;;;;;64.80;27.98;;;;;;;;;;6182620;23;20199;-91
2021/11/01 16:33:43;;;;;;;64.55;28.42;;;;;;;;;;6184347;23;20188;-91
2021/11/01 16:40:14;;;;;;;70.57;28.02;;;;;;;;;;6182916;23;20172;-90
2021/11/01 16:43:21;;;;;;;69.10;28.45;;;;;;;;;;6184737;23;20175;-90
2021/11/01 16:46:28;;;;;;;70.38;28.65;;;;;;;;;;6182977;23;20235;-91
2021/11/01 16:49:33;;;;;;;65.32;27.45;;;;;;;;;;6183590;23;20195;-91
2021/11/01 16:52:45;;;;;;;65.68;27.65;;;;;;;;;;6184623;23;20176;-91
2021/11/01 16:55:53;;;;;;;54.15;24.48;;;;;;;;;;6184653;23;20179;-91
2021/11/01 16:59:06;;;;;;;63.75;26.67;;;;;;;;;;6185250;23;20485;-89
2021/11/01 17:09:55;;;;;;;46.60;22.17;;;;;;;;;;6185326;23;20223;-90
2021/11/01 17:27:38;;;;;;;65.00;29.08;;;;;;;;;;6185612;23;20168;-90
2021/11/01 17:37:53;;;;;;;29.42;13.73;;;;;;;;;;6185200;23;20192;-88
2021/11/01 18:40:41;;;;;;;12.83;5.67;;;;;;;;;;6081638;23;20178;-91
2021/11/01 18:54:15;;;;;;;13.40;5.93;;;;;;;;;;6182757;23;20195;-88
2021/11/01 18:57:21;;;;;;;13.40;6.23;;;;;;;;;;6182242;23;20180;-90
2021/11/01 19:00:27;;;;;;;14.73;6.10;;;;;;;;;;6182235;23;20214;-88
2021/11/01 19:03:36;;;;;;;14.63;6.30;;;;;;;;;;6183157;23;20168;-91
2021/11/01 19:06:50;;;;;;;16.37;6.50;;;;;;;;;;6183548;23;20196;-90
2021/11/01 19:10:08;;;;;;;15.27;7.47;;;;;;;;;;6185029;23;20195;-90
2021/11/01 23:33:19;;;;;;;9.57;4.20;;;;;;;;;;6161059;23;20160;-92
2021/11/01 23:36:25;;;;;;;11.03;4.57;;;;;;;;;;6159402;23;20173;-89
2021/11/01 23:39:32;;;;;;;7.30;4.47;;;;;;;;;;6157636;23;20176;-87
2021/11/01 23:42:40;;;;;;;7.88;4.38;;;;;;;;;;6160020;23;20185;-89
2021/11/01 23:45:48;;;;;;;7.80;4.43;;;;;;;;;;6159713;23;20173;-92
2021/11/01 23:48:54;;;;;;;9.15;4.10;;;;;;;;;;6159537;23;20172;-89
2021/11/01 23:52:07;;;;;;;9.27;4.27;;;;;;;;;;6161492;23;20199;-90
2021/11/01 23:55:17;;;;;;;9.53;3.77;;;;;;;;;;6175447;23;20216;-90
2021/11/01 23:58:25;;;;;;;7.33;3.93;;;;;;;;;;6160157;23;20177;-90
